Terminal Aerodrome Forecast
Issued by NWS

Home | Current Version | Previous Version | Text Only | Print | Product List | Glossary On
Versions: 1 2 3 4 5 6 7 8 9 10 11 12 13 14 15 16 17 18 19
000
FTUS46 KMTR 251133
TAFMRY
TAF
KMRY 251133Z 2512/2612 21006KT P6SM OVC018
     FM251730 26010KT P6SM OVC022
     FM252000 22014G20KT P6SM BKN024
     FM260300 21006KT P6SM OVC018
     FM260600 19004KT P6SM OVC012=

USA.gov is the U.S. government's official web portal to all federal, state and local government web resources and services.